Time;durP1;ratioP1;P1;durP2;ratioP2;P2;SDS_P1;SDS_P2;PMS_P1;PMS_P2;Temp;Humidity;BMP_temperature;BMP_pressure;BME280_temperature;BME280_humidity;BME280_pressure;Samples;Min_cycle;Max_cycle;Signal;HPM_P1;HPM_P2
2022/04/21 00:02:24;;;;;;;5.15;3.22;;;9.10;99.90;;;;;;5095830;28;20040;-63
2022/04/21 00:04:49;;;;;;;4.88;3.33;;;9.10;99.90;;;;;;5077769;28;20020;-63
2022/04/21 00:07:15;;;;;;;6.03;3.70;;;9.00;99.90;;;;;;5077278;28;20103;-62
2022/04/21 00:09:40;;;;;;;7.60;4.32;;;9.00;99.90;;;;;;5089378;28;20020;-63
2022/04/21 00:12:06;;;;;;;5.97;3.75;;;9.00;99.90;;;;;;5056592;28;20021;-63
2022/04/21 00:14:32;;;;;;;9.85;3.95;;;9.00;99.90;;;;;;5074498;28;20017;-63
2022/04/21 00:16:58;;;;;;;5.22;3.65;;;8.90;99.90;;;;;;5057442;28;20020;-63
2022/04/21 00:19:23;;;;;;;7.07;4.07;;;8.90;99.90;;;;;;5074349;28;20024;-62
2022/04/21 00:24:33;;;;;;;5.88;3.33;;;8.80;99.90;;;;;;5075005;28;20031;-63
2022/04/21 00:26:59;;;;;;;5.90;3.17;;;8.80;99.90;;;;;;5073054;28;20021;-62
2022/04/21 00:29:24;;;;;;;4.85;3.45;;;8.70;99.90;;;;;;5073766;28;20024;-62
2022/04/21 00:31:50;;;;;;;7.65;3.30;;;8.70;99.90;;;;;;5056626;28;20111;-63
2022/04/21 00:34:18;;;;;;;9.98;3.97;;;8.60;99.90;;;;;;5072785;28;20028;-61
2022/04/21 00:36:45;;;;;;;9.77;4.57;;;8.50;99.90;;;;;;5074287;28;20058;-62
2022/04/21 00:39:10;;;;;;;5.85;3.65;;;8.30;99.90;;;;;;5072425;28;20031;-63
2022/04/21 00:41:36;;;;;;;8.23;3.55;;;8.20;99.90;;;;;;5075156;28;20028;-63
2022/04/21 00:44:02;;;;;;;7.55;3.70;;;8.10;99.90;;;;;;5076055;28;20080;-62
2022/04/21 00:46:28;;;;;;;5.75;3.63;;;8.10;99.90;;;;;;5076072;28;20087;-63
2022/04/21 00:48:55;;;;;;;4.95;3.38;;;8.10;99.90;;;;;;5076637;28;20077;-62
2022/04/21 00:51:23;;;;;;;6.25;3.70;;;8.10;99.90;;;;;;5075904;28;20036;-62
2022/04/21 00:53:49;;;;;;;6.65;3.78;;;8.10;99.90;;;;;;5076064;28;20028;-62
2022/04/21 00:56:15;;;;;;;5.65;3.42;;;8.00;99.90;;;;;;5076054;28;20032;-62
2022/04/21 00:58:41;;;;;;;5.55;3.50;;;7.90;99.90;;;;;;5075782;28;20393;-62
2022/04/21 01:02:46;;;;;;;5.72;3.58;;;8.00;99.90;;;;;;5076289;28;20036;-63
2022/04/21 01:03:55;;;;;;;5.13;3.95;;;8.00;99.90;;;;;;5094011;28;20024;-62
2022/04/21 01:06:22;;;;;;;7.68;3.80;;;8.10;99.90;;;;;;5075685;28;20478;-63
2022/04/21 01:08:48;;;;;;;3.65;3.28;;;8.10;99.90;;;;;;5075414;28;20031;-62
2022/04/21 01:11:16;;;;;;;7.30;3.78;;;8.00;99.90;;;;;;5075524;28;20032;-62
2022/04/21 01:13:42;;;;;;;5.88;3.67;;;8.00;99.90;;;;;;5093671;28;20024;-62
2022/04/21 01:16:08;;;;;;;5.72;3.83;;;7.90;99.90;;;;;;5076096;28;20024;-62
2022/04/21 01:18:34;;;;;;;6.45;3.47;;;7.80;99.90;;;;;;5075394;28;20024;-62
2022/04/21 01:20:59;;;;;;;7.65;3.65;;;7.70;99.90;;;;;;5075959;28;20020;-61
2022/04/21 01:23:25;;;;;;;9.07;3.90;;;7.70;99.90;;;;;;5075294;28;20020;-61
2022/04/21 01:25:52;;;;;;;6.57;4.53;;;7.60;99.90;;;;;;5075268;28;20024;-62
2022/04/21 01:28:18;;;;;;;5.68;3.30;;;7.60;99.90;;;;;;5075563;28;20016;-62
2022/04/21 01:30:44;;;;;;;5.25;3.58;;;7.60;99.90;;;;;;5075587;28;20089;-63
2022/04/21 01:33:09;;;;;;;4.80;3.38;;;7.70;99.90;;;;;;5075882;28;20032;-62
2022/04/21 01:35:36;;;;;;;10.02;4.00;;;7.60;99.90;;;;;;5093852;28;20024;-63
2022/04/21 01:43:29;;;;;;;4.85;3.40;;;7.60;99.90;;;;;;5093650;28;20065;-62
2022/04/21 01:45:55;;;;;;;7.03;3.65;;;7.70;99.90;;;;;;5075064;28;20024;-62
2022/04/21 01:48:21;;;;;;;7.32;4.13;;;7.70;99.90;;;;;;5093455;28;20367;-62
2022/04/21 01:50:47;;;;;;;7.82;3.97;;;7.70;99.90;;;;;;5075407;28;20067;-62
2022/04/21 01:53:12;;;;;;;7.38;4.00;;;7.70;99.90;;;;;;5075736;28;20123;-62
2022/04/21 01:55:38;;;;;;;7.20;4.30;;;7.60;99.90;;;;;;5093187;28;20020;-62
2022/04/21 01:58:07;;;;;;;12.70;3.97;;;7.50;99.90;;;;;;5092933;28;20024;-62
2022/04/21 02:00:33;;;;;;;6.47;3.60;;;7.50;99.90;;;;;;5092856;28;20020;-62
2022/04/21 02:02:59;;;;;;;8.00;4.00;;;7.50;99.90;;;;;;5074699;28;20031;-62
2022/04/21 02:05:24;;;;;;;5.55;3.83;;;7.60;99.90;;;;;;5074869;28;20027;-62
2022/04/21 02:07:50;;;;;;;6.15;4.72;;;7.40;99.90;;;;;;5093253;28;20119;-61
2022/04/21 02:10:18;;;;;;;6.38;3.63;;;7.50;99.90;;;;;;5074481;28;20020;-61
2022/04/21 02:12:45;;;;;;;7.30;3.65;;;7.40;99.90;;;;;;5093113;28;20107;-62
2022/04/21 02:15:11;;;;;;;7.57;3.65;;;7.40;99.90;;;;;;5075099;28;20111;-62
2022/04/21 02:17:37;;;;;;;9.32;4.00;;;7.40;99.90;;;;;;5075000;28;20052;-62
2022/04/21 02:20:05;;;;;;;6.57;3.55;;;7.40;99.90;;;;;;5093025;28;20415;-62
2022/04/21 02:22:31;;;;;;;6.70;3.70;;;7.40;99.90;;;;;;5075054;28;20112;-62
2022/04/21 02:24:56;;;;;;;6.30;3.83;;;7.40;99.90;;;;;;5074889;28;20080;-63
2022/04/21 02:27:22;;;;;;;6.78;4.20;;;7.30;99.90;;;;;;5092816;28;20103;-62
2022/04/21 02:29:48;;;;;;;5.75;3.40;;;7.20;99.90;;;;;;5075068;28;20127;-63
2022/04/21 02:32:14;;;;;;;7.05;3.63;;;7.10;99.90;;;;;;5074742;28;20027;-62
2022/04/21 02:34:41;;;;;;;8.25;3.70;;;7.10;99.90;;;;;;5074940;28;20020;-63
2022/04/21 02:37:07;;;;;;;8.45;3.92;;;7.10;99.90;;;;;;5074331;28;20382;-62
2022/04/21 02:39:32;;;;;;;14.07;3.90;;;7.00;99.90;;;;;;5075267;28;20016;-62
2022/04/21 02:41:59;;;;;;;7.25;3.80;;;6.90;99.90;;;;;;5074701;28;20110;-63
2022/04/21 02:44:24;;;;;;;8.82;3.90;;;6.90;99.90;;;;;;5074692;28;20062;-62
2022/04/21 02:46:51;;;;;;;11.30;3.78;;;6.90;99.90;;;;;;5074578;28;20039;-62
2022/04/21 02:49:17;;;;;;;6.10;3.85;;;6.90;99.90;;;;;;5074511;28;20035;-62
2022/04/21 02:51:43;;;;;;;6.05;4.00;;;6.80;99.90;;;;;;5075002;28;20020;-62
2022/04/21 02:59:37;;;;;;;7.35;3.90;;;6.80;99.90;;;;;;5093225;28;20073;-60
2022/04/21 03:02:03;;;;;;;7.70;3.80;;;6.80;99.90;;;;;;5092374;28;20028;-62
2022/04/21 03:04:28;;;;;;;5.47;3.60;;;6.80;99.90;;;;;;5075818;28;20017;-62
2022/04/21 03:06:54;;;;;;;5.35;3.80;;;6.70;99.90;;;;;;5078459;28;20034;-63
2022/04/21 03:09:19;;;;;;;8.20;4.25;;;6.70;99.90;;;;;;5078648;28;20035;-62
2022/04/21 03:11:47;;;;;;;4.78;3.47;;;6.70;99.90;;;;;;5078152;28;20028;-62
2022/04/21 03:14:14;;;;;;;8.25;4.15;;;6.70;99.90;;;;;;5077883;28;20500;-62
2022/04/21 03:16:39;;;;;;;6.45;3.78;;;6.70;99.90;;;;;;5077868;28;20029;-62
2022/04/21 03:19:05;;;;;;;7.68;4.40;;;6.70;99.90;;;;;;5077951;28;20039;-62
2022/04/21 03:24:20;;;;;;;6.55;3.65;;;7.10;99.90;;;;;;5096207;28;20421;-62
2022/04/21 03:26:50;;;;;;;5.50;3.20;;;7.20;99.90;;;;;;5077773;28;20023;-62
2022/04/21 03:29:16;;;;;;;5.40;4.38;;;7.20;99.90;;;;;;5078065;28;20028;-62
2022/04/21 03:31:43;;;;;;;11.52;3.83;;;7.10;99.90;;;;;;5096027;28;20489;-62
2022/04/21 03:34:13;;;;;;;6.57;4.25;;;7.00;99.90;;;;;;5077788;28;20028;-62
2022/04/21 03:36:49;;;;;;;7.22;3.40;;;7.00;99.90;;;;;;5095940;28;20031;-62
2022/04/21 03:39:21;;;;;;;4.97;3.88;;;7.20;99.90;;;;;;5096096;28;20103;-61
2022/04/21 03:41:53;;;;;;;11.07;3.78;;;7.10;99.90;;;;;;5095645;28;20073;-62
2022/04/21 03:44:22;;;;;;;6.75;3.70;;;7.20;99.90;;;;;;5095944;28;20048;-62
2022/04/21 03:46:48;;;;;;;6.55;4.13;;;7.40;99.90;;;;;;5077773;28;20483;-62
2022/04/21 03:49:14;;;;;;;6.57;3.67;;;7.60;99.90;;;;;;5095605;28;20056;-61
2022/04/21 03:51:40;;;;;;;9.98;3.72;;;7.60;99.90;;;;;;5075843;28;20055;-62
2022/04/21 03:54:05;;;;;;;8.02;4.20;;;7.70;99.90;;;;;;5057481;28;20051;-62
2022/04/21 03:56:32;;;;;;;10.13;4.75;;;7.70;99.90;;;;;;5056899;28;20193;-62
2022/04/21 03:58:58;;;;;;;6.72;4.10;;;7.80;99.90;;;;;;5057960;28;20066;-62
2022/04/21 04:01:23;;;;;;;6.45;3.63;;;7.70;99.90;;;;;;5057070;28;20068;-62
2022/04/21 04:03:50;;;;;;;5.70;3.97;;;7.70;99.90;;;;;;5078801;28;20020;-62
2022/04/21 04:11:44;;;;;;;8.15;4.28;;;7.60;99.90;;;;;;5095309;28;20138;-62
2022/04/21 04:14:10;;;;;;;6.30;4.10;;;7.60;99.90;;;;;;5094979;28;20052;-62
2022/04/21 04:16:37;;;;;;;10.45;4.20;;;7.50;99.90;;;;;;5093976;28;20072;-63
2022/04/21 04:19:05;;;;;;;7.25;4.03;;;7.50;99.90;;;;;;5077638;28;20047;-62
2022/04/21 04:21:31;;;;;;;8.25;4.57;;;7.60;99.90;;;;;;5076831;28;20020;-62
2022/04/21 04:23:58;;;;;;;9.23;4.63;;;7.60;99.90;;;;;;5077579;28;20020;-62
2022/04/21 04:26:23;;;;;;;7.72;5.00;;;7.60;99.90;;;;;;5076391;28;20024;-62
2022/04/21 04:28:49;;;;;;;5.53;4.32;;;7.60;99.90;;;;;;5076803;28;20028;-62
2022/04/21 04:31:16;;;;;;;10.18;5.30;;;7.60;99.90;;;;;;5076582;28;20040;-62
2022/04/21 04:33:41;;;;;;;6.75;4.20;;;7.60;99.90;;;;;;5095052;28;20059;-63
2022/04/21 04:36:09;;;;;;;8.57;4.72;;;7.70;99.90;;;;;;5094946;28;20048;-62
2022/04/21 04:38:35;;;;;;;6.32;4.32;;;7.80;99.90;;;;;;5076802;28;20508;-62
2022/04/21 04:42:16;;;;;;;7.07;4.15;;;7.90;99.90;;;;;;5076950;28;20028;-62
2022/04/21 04:43:46;;;;;;;8.57;4.70;;;7.80;99.90;;;;;;5094654;28;20016;-62
2022/04/21 04:48:56;;;;;;;8.20;4.53;;;7.90;99.90;;;;;;5095078;28;20081;-63
2022/04/21 04:51:21;;;;;;;6.10;4.45;;;8.10;99.90;;;;;;5094678;28;20024;-63
2022/04/21 04:53:47;;;;;;;9.13;4.65;;;8.00;99.90;;;;;;5094689;28;20095;-62
2022/04/21 04:56:14;;;;;;;10.70;4.75;;;8.10;99.90;;;;;;5077149;28;20027;-63
2022/04/21 04:58:40;;;;;;;9.55;5.30;;;8.10;99.90;;;;;;5076669;28;20088;-62
2022/04/21 05:01:06;;;;;;;7.82;4.60;;;8.20;99.90;;;;;;5076107;28;20119;-63
2022/04/21 05:03:32;;;;;;;8.63;4.55;;;8.20;99.90;;;;;;5076465;28;20054;-63
2022/04/21 05:05:58;;;;;;;9.57;5.18;;;8.20;99.90;;;;;;5076603;28;20027;-68
2022/04/21 05:08:23;;;;;;;8.98;4.38;;;8.30;99.90;;;;;;5094404;28;20016;-63
2022/04/21 05:10:53;;;;;;;7.70;4.10;;;8.40;99.90;;;;;;5076171;28;20050;-62
2022/04/21 05:13:18;;;;;;;11.80;5.88;;;8.30;99.90;;;;;;5076187;28;20496;-63
2022/04/21 05:15:44;;;;;;;11.02;4.80;;;8.30;99.90;;;;;;5076089;28;20081;-63
2022/04/21 05:18:10;;;;;;;6.40;4.10;;;8.40;99.90;;;;;;5076096;28;20020;-63
2022/04/21 05:20:36;;;;;;;10.07;4.32;;;8.50;99.90;;;;;;5094569;28;20039;-62
2022/04/21 05:23:06;;;;;;;7.10;4.70;;;8.60;99.90;;;;;;5075847;28;20397;-62
2022/04/21 05:25:36;;;;;;;12.05;5.32;;;8.60;99.90;;;;;;5075863;28;20024;-63
2022/04/21 05:28:21;;;;;;;13.38;5.97;;;8.50;99.90;;;;;;5082395;28;20027;-62
2022/04/21 05:30:56;;;;;;;10.80;5.13;;;8.20;99.90;;;;;;5056627;28;20025;-62
2022/04/21 05:33:29;;;;;;;9.20;4.85;;;8.10;99.90;;;;;;5072487;28;20025;-63
2022/04/21 05:35:57;;;;;;;9.10;4.35;;;8.00;99.90;;;;;;5073229;28;20036;-63
2022/04/21 05:38:23;;;;;;;6.28;3.90;;;7.90;99.90;;;;;;5073450;28;20029;-62
2022/04/21 05:40:50;;;;;;;9.20;4.57;;;7.80;99.90;;;;;;5072132;28;20115;-63
2022/04/21 05:43:20;;;;;;;9.80;4.10;;;7.90;99.90;;;;;;5073482;28;20020;-62
2022/04/21 05:45:47;;;;;;;9.25;3.83;;;8.00;99.90;;;;;;5074096;28;20016;-62
2022/04/21 05:48:15;;;;;;;6.35;3.92;;;8.30;99.90;;;;;;5065714;28;20024;-62
2022/04/21 05:50:45;;;;;;;7.35;3.83;;;8.50;99.90;;;;;;5093619;28;20035;-63
2022/04/21 05:53:18;;;;;;;6.63;4.63;;;8.70;99.90;;;;;;5065586;28;20024;-62
2022/04/21 05:55:44;;;;;;;5.60;3.72;;;8.80;99.90;;;;;;5055463;28;20119;-64
2022/04/21 05:58:10;;;;;;;7.43;4.65;;;9.10;99.90;;;;;;5055763;28;20116;-62
2022/04/21 06:00:35;;;;;;;7.10;4.03;;;9.20;99.90;;;;;;5057896;28;20036;-61
2022/04/21 06:03:01;;;;;;;9.27;4.38;;;9.40;99.90;;;;;;5073608;28;20028;-62
2022/04/21 06:05:27;;;;;;;5.60;3.67;;;9.50;99.90;;;;;;5074144;28;20048;-63
2022/04/21 06:07:53;;;;;;;6.80;3.60;;;9.80;99.90;;;;;;5072625;28;20072;-62
2022/04/21 06:10:18;;;;;;;7.90;4.60;;;10.00;99.90;;;;;;5055226;28;20359;-61
2022/04/21 06:12:44;;;;;;;6.22;4.53;;;10.10;99.90;;;;;;5055138;28;20024;-62
2022/04/21 06:15:10;;;;;;;10.45;4.97;;;10.10;99.90;;;;;;5062928;28;20038;-62
2022/04/21 06:17:35;;;;;;;9.18;5.15;;;10.10;99.90;;;;;;5088000;28;20473;-62
2022/04/21 06:20:01;;;;;;;7.88;4.65;;;10.10;99.90;;;;;;5075251;28;20039;-63
2022/04/21 06:22:26;;;;;;;9.77;4.85;;;10.00;99.90;;;;;;5075113;28;20025;-62
2022/04/21 06:24:52;;;;;;;12.75;5.30;;;10.00;99.90;;;;;;5093270;28;20024;-62
2022/04/21 06:27:18;;;;;;;6.85;4.25;;;10.00;99.90;;;;;;5076873;28;20100;-62
2022/04/21 06:29:44;;;;;;;7.68;4.22;;;10.30;99.90;;;;;;5090561;28;20032;-62
2022/04/21 06:32:10;;;;;;;8.07;4.53;;;10.50;99.90;;;;;;5075026;28;20024;-62
2022/04/21 06:34:35;;;;;;;7.38;3.97;;;10.70;99.90;;;;;;5074975;28;20024;-63
2022/04/21 06:37:01;;;;;;;6.82;3.90;;;11.00;99.90;;;;;;5091654;28;20020;-62
2022/04/21 06:39:27;;;;;;;8.15;4.32;;;11.10;99.90;;;;;;5077617;28;20021;-62
2022/04/21 06:41:53;;;;;;;6.95;3.70;;;11.10;99.90;;;;;;5078770;28;20028;-62
2022/04/21 06:49:47;;;;;;;7.75;3.35;;;11.70;99.90;;;;;;5097246;28;20093;-63
2022/04/21 06:52:13;;;;;;;11.38;3.42;;;11.40;99.90;;;;;;5078780;28;20016;-62
2022/04/21 06:54:38;;;;;;;8.27;3.00;;;11.30;99.90;;;;;;5075668;28;20115;-63
2022/04/21 06:57:04;;;;;;;7.45;2.97;;;11.50;99.90;;;;;;5071527;28;20032;-63
2022/04/21 06:59:29;;;;;;;6.35;3.10;;;11.60;99.90;;;;;;5096996;28;20120;-62
2022/04/21 07:01:55;;;;;;;9.25;3.22;;;11.70;99.90;;;;;;5078601;28;20039;-62
2022/04/21 07:04:21;;;;;;;7.03;3.10;;;11.50;99.90;;;;;;5078517;28;20028;-62
2022/04/21 07:06:46;;;;;;;5.13;3.22;;;11.80;99.90;;;;;;5075045;28;20099;-63
2022/04/21 07:09:12;;;;;;;4.07;2.50;;;11.60;99.90;;;;;;5096644;28;20020;-63
2022/04/21 07:11:38;;;;;;;7.63;2.95;;;11.70;99.90;;;;;;5096470;28;20054;-62
2022/04/21 07:14:04;;;;;;;10.57;3.47;;;11.60;99.90;;;;;;5077626;28;20455;-62
2022/04/21 07:16:30;;;;;;;5.90;2.78;;;11.10;99.90;;;;;;5090181;28;20028;-62
2022/04/21 07:18:56;;;;;;;8.27;3.58;;;10.80;99.90;;;;;;5092840;28;20102;-62
2022/04/21 07:21:22;;;;;;;5.90;3.63;;;10.90;99.90;;;;;;5088361;28;20112;-63
2022/04/21 07:23:47;;;;;;;9.20;3.05;;;11.00;99.90;;;;;;5074686;28;20029;-63
2022/04/21 07:26:13;;;;;;;10.70;3.80;;;11.00;99.90;;;;;;5079643;28;20035;-62
2022/04/21 07:28:41;;;;;;;3.95;2.70;;;11.20;99.90;;;;;;5058572;28;20048;-62
2022/04/21 07:31:06;;;;;;;4.13;2.90;;;11.20;99.90;;;;;;5076235;28;20084;-62
2022/04/21 07:33:32;;;;;;;8.82;2.88;;;11.00;99.90;;;;;;5076394;28;20100;-62
2022/04/21 07:35:58;;;;;;;4.88;2.90;;;11.10;99.90;;;;;;5075166;28;20074;-62
2022/04/21 07:38:23;;;;;;;4.13;2.80;;;11.20;99.90;;;;;;5074476;28;20482;-62
2022/04/21 07:40:52;;;;;;;5.88;3.28;;;11.30;99.90;;;;;;5073708;28;20024;-61
2022/04/21 07:43:18;;;;;;;5.95;3.30;;;11.30;99.90;;;;;;5073723;28;20078;-61
2022/04/21 07:45:49;;;;;;;4.50;3.08;;;11.10;99.90;;;;;;5074631;28;20029;-62
2022/04/21 07:48:15;;;;;;;3.27;2.30;;;11.00;99.90;;;;;;5074325;28;20479;-62
2022/04/21 07:50:41;;;;;;;6.38;3.35;;;11.10;99.90;;;;;;5074136;28;20028;-62
2022/04/21 07:53:15;;;;;;;7.97;3.42;;;11.20;99.90;;;;;;5075499;28;20036;-61
2022/04/21 07:55:50;;;;;;;3.80;2.85;;;11.30;99.90;;;;;;5075688;28;20020;-62
2022/04/21 07:58:16;;;;;;;9.45;3.13;;;11.50;99.90;;;;;;5074163;28;20031;-62
2022/04/21 08:00:43;;;;;;;10.68;3.75;;;11.50;99.90;;;;;;5073976;28;20028;-62
2022/04/21 08:03:10;;;;;;;9.57;3.15;;;11.70;99.90;;;;;;5075890;28;20023;-59
2022/04/21 08:05:36;;;;;;;8.85;2.75;;;11.60;99.90;;;;;;5075337;28;20052;-62
2022/04/21 08:08:03;;;;;;;9.80;2.88;;;11.60;99.90;;;;;;5075259;28;20044;-62
2022/04/21 08:10:29;;;;;;;6.57;3.17;;;11.70;99.90;;;;;;5075080;28;20052;-61
2022/04/21 08:12:59;;;;;;;9.98;4.30;;;11.80;99.90;;;;;;5075205;28;20031;-62
2022/04/21 08:15:30;;;;;;;8.45;3.97;;;11.90;99.90;;;;;;5075660;28;20027;-62
2022/04/21 08:17:58;;;;;;;8.02;3.20;;;11.90;99.90;;;;;;5073821;28;20035;-61
2022/04/21 08:20:25;;;;;;;7.35;2.92;;;11.80;99.90;;;;;;5073897;28;20024;-62
2022/04/21 08:22:51;;;;;;;8.30;3.10;;;11.80;99.90;;;;;;5073770;28;20040;-62
2022/04/21 08:33:29;;;;;;;11.25;3.47;;;12.50;99.90;;;;;;5095540;28;20031;-62
2022/04/21 08:36:14;;;;;;;6.47;3.13;;;12.50;99.90;;;;;;5072688;28;20375;-64
2022/04/21 08:38:39;;;;;;;5.28;2.88;;;12.60;99.90;;;;;;5084989;28;20056;-65
2022/04/21 08:41:07;;;;;;;8.77;3.10;;;12.80;99.90;;;;;;5088032;28;20070;-65
2022/04/21 08:43:34;;;;;;;6.30;3.50;;;13.30;99.90;;;;;;5056595;28;20490;-65
2022/04/21 08:46:01;;;;;;;7.80;3.45;;;13.60;99.90;;;;;;5056349;28;20025;-65
2022/04/21 08:48:36;;;;;;;7.47;3.97;;;13.80;99.90;;;;;;5071377;28;20024;-66
2022/04/21 08:51:07;;;;;;;6.78;2.90;;;14.00;99.90;;;;;;5072030;28;20113;-63
2022/04/21 08:53:32;;;;;;;5.23;3.40;;;14.00;99.90;;;;;;5073316;28;20035;-62
2022/04/21 08:55:59;;;;;;;4.03;3.10;;;14.10;99.90;;;;;;5073118;28;20024;-62
2022/04/21 08:58:25;;;;;;;3.20;2.60;;;14.20;99.90;;;;;;5072877;28;20116;-60
2022/04/21 09:00:54;;;;;;;4.20;2.78;;;14.60;99.90;;;;;;5074162;28;20154;-62
2022/04/21 09:03:22;;;;;;;6.25;3.08;;;15.30;99.90;;;;;;5075566;28;20024;-61
2022/04/21 09:05:48;;;;;;;5.28;3.30;;;15.90;99.90;;;;;;5092122;28;20024;-63
2022/04/21 09:08:22;;;;;;;4.95;3.10;;;15.80;99.90;;;;;;5072520;28;20024;-64
2022/04/21 09:11:15;;;;;;;4.32;2.78;;;15.50;99.90;;;;;;5073095;28;20551;-64
2022/04/21 09:13:44;;;;;;;3.60;2.40;;;15.30;99.90;;;;;;5072816;28;20063;-64
2022/04/21 09:16:12;;;;;;;5.18;2.85;;;15.20;99.90;;;;;;5072820;28;20035;-65
2022/04/21 09:18:46;;;;;;;5.20;2.80;;;15.20;99.90;;;;;;5072948;28;20048;-63
2022/04/21 09:21:16;;;;;;;8.45;2.90;;;14.90;99.90;;;;;;5072323;28;20444;-64
2022/04/21 09:23:44;;;;;;;4.63;2.78;;;14.60;99.90;;;;;;5067891;28;20028;-63
2022/04/21 09:26:14;;;;;;;6.20;3.00;;;14.70;99.90;;;;;;5081674;28;20032;-62
2022/04/21 09:28:41;;;;;;;3.90;2.30;;;15.10;99.90;;;;;;5055968;28;20024;-63
2022/04/21 09:31:09;;;;;;;6.45;2.42;;;15.50;99.90;;;;;;5055645;28;20494;-63
2022/04/21 09:33:44;;;;;;;5.72;3.08;;;16.20;99.90;;;;;;5075968;28;20024;-63
2022/04/21 09:36:10;;;;;;;5.20;3.03;;;16.90;99.90;;;;;;5075812;28;20024;-64
2022/04/21 09:38:37;;;;;;;4.18;2.92;;;16.50;99.90;;;;;;5075784;28;20060;-63
2022/04/21 09:41:13;;;;;;;6.45;2.50;;;16.80;99.90;;;;;;5072124;28;20048;-60
2022/04/21 09:43:41;;;;;;;5.68;2.53;;;17.40;99.90;;;;;;5055486;28;20074;-64
2022/04/21 09:46:25;;;;;;;5.20;2.65;;;18.10;99.70;;;;;;5055692;28;20017;-64
2022/04/21 09:48:55;;;;;;;4.93;2.67;;;18.80;96.10;;;;;;5055566;28;20025;-64
2022/04/21 09:51:27;;;;;;;3.88;2.90;;;18.80;95.20;;;;;;5055411;28;20024;-62
2022/04/21 09:53:59;;;;;;;5.03;2.60;;;18.20;94.60;;;;;;5073252;28;20414;-64
2022/04/21 09:56:44;;;;;;;2.85;2.47;;;17.70;94.50;;;;;;5073341;28;20094;-63
2022/04/21 09:59:11;;;;;;;4.30;2.55;;;17.60;94.50;;;;;;5073239;28;20387;-64
2022/04/21 10:01:39;;;;;;;5.07;2.97;;;18.60;94.50;;;;;;5073241;28;20039;-62
2022/04/21 10:04:09;;;;;;;3.78;2.42;;;18.50;93.30;;;;;;5073259;28;20024;-60
2022/04/21 10:06:39;;;;;;;7.65;3.15;;;18.90;92.70;;;;;;5055564;28;20025;-62
2022/04/21 10:09:05;;;;;;;5.85;2.67;;;18.50;92.50;;;;;;5073517;28;20076;-63
2022/04/21 10:11:31;;;;;;;3.58;2.45;;;18.30;93.80;;;;;;5055273;28;20020;-63
2022/04/21 10:13:57;;;;;;;6.18;2.50;;;18.70;92.80;;;;;;5075860;28;20483;-62
2022/04/21 10:16:26;;;;;;;3.95;2.53;;;19.20;92.50;;;;;;5077383;28;20032;-63
2022/04/21 10:18:54;;;;;;;6.55;3.22;;;19.50;91.00;;;;;;5077245;28;20052;-64
2022/04/21 10:21:38;;;;;;;3.95;2.65;;;19.60;90.60;;;;;;5059147;28;20021;-61
2022/04/21 10:24:05;;;;;;;6.18;2.67;;;20.20;90.90;;;;;;5059463;28;20021;-62
2022/04/21 10:26:37;;;;;;;5.50;3.15;;;20.90;90.60;;;;;;5076933;28;20028;-63
2022/04/21 10:29:14;;;;;;;7.65;2.80;;;20.70;85.90;;;;;;5059170;28;20116;-62
2022/04/21 10:31:55;;;;;;;5.22;3.13;;;20.10;87.60;;;;;;5091561;28;20043;-63
2022/04/21 10:34:28;;;;;;;;;;;19.70;89.70;;;;;;5079448;28;20062;-63
2022/04/21 10:37:07;;;;;;;3.95;2.67;;;19.30;90.10;;;;;;5078589;28;19954;-65
2022/04/21 10:39:33;;;;;;;4.70;2.30;;;19.20;90.90;;;;;;5062580;28;20028;-61
2022/04/21 10:42:07;;;;;;;4.15;2.58;;;18.80;91.00;;;;;;5079042;28;20078;-62
2022/04/21 10:44:46;;;;;;;4.45;2.40;;;18.20;91.20;;;;;;5079066;28;20016;-63
2022/04/21 10:47:30;;;;;;;6.20;2.80;;;17.50;92.00;;;;;;5097104;28;20020;-63
2022/04/21 10:50:12;;;;;;;4.15;2.35;;;17.40;92.20;;;;;;5078766;28;20118;-64
2022/04/21 10:58:36;;;;;;;5.10;2.63;;;17.20;93.20;;;;;;5097116;28;20065;-63
2022/04/21 11:01:31;;;;;;;3.50;2.65;;;17.10;94.00;;;;;;5096671;28;20047;-64
2022/04/21 11:04:11;;;;;;;4.22;2.72;;;16.80;94.30;;;;;;5079617;28;20032;-63
2022/04/21 11:06:42;;;;;;;3.58;2.35;;;16.60;94.50;;;;;;5096683;28;20024;-63
2022/04/21 11:09:08;;;;;;;7.22;2.53;;;16.50;95.60;;;;;;5078780;28;20462;-63
2022/04/21 11:11:46;;;;;;;4.68;3.22;;;16.50;95.00;;;;;;5078184;28;20039;-65
2022/04/21 11:14:11;;;;;;;8.02;2.88;;;16.20;95.30;;;;;;5096509;28;20077;-61
2022/04/21 11:16:40;;;;;;;7.47;2.85;;;16.00;96.10;;;;;;5078305;28;20111;-63
2022/04/21 11:19:32;;;;;;;6.32;3.00;;;16.00;96.80;;;;;;5078381;28;20028;-61
2022/04/21 11:22:08;;;;;;;4.78;2.13;;;16.10;97.20;;;;;;5096112;28;20048;-61
2022/04/21 11:24:56;;;;;;;2.72;2.13;;;16.20;97.60;;;;;;5095555;28;20099;-63
2022/04/21 11:27:22;;;;;;;5.00;2.45;;;16.30;96.70;;;;;;5078326;28;20032;-62
2022/04/21 11:29:48;;;;;;;4.57;2.20;;;16.10;97.00;;;;;;5078266;28;20032;-61
2022/04/21 11:32:19;;;;;;;3.55;2.05;;;16.10;96.90;;;;;;5077854;28;20028;-62
2022/04/21 11:35:09;;;;;;;4.03;1.92;;;16.20;96.80;;;;;;5077873;28;20159;-61
2022/04/21 11:37:50;;;;;;;3.63;1.88;;;16.30;97.80;;;;;;5095967;28;20024;-63
2022/04/21 11:40:32;;;;;;;2.72;2.13;;;16.30;97.60;;;;;;5077917;28;20039;-62
2022/04/21 11:43:00;;;;;;;4.55;2.22;;;16.10;96.80;;;;;;5095819;28;20020;-63
2022/04/21 11:45:28;;;;;;;2.72;1.40;;;16.10;97.60;;;;;;5078072;28;20474;-64
2022/04/21 11:47:54;;;;;;;4.57;2.17;;;16.40;97.30;;;;;;5078032;28;20031;-63
2022/04/21 11:50:25;;;;;;;5.82;2.10;;;16.40;97.40;;;;;;5077793;28;20028;-64
2022/04/21 11:52:53;;;;;;;2.40;1.80;;;16.20;98.00;;;;;;5094065;28;20056;-61
2022/04/21 11:55:24;;;;;;;2.75;1.92;;;16.20;97.50;;;;;;5075715;28;20028;-61
2022/04/21 11:57:50;;;;;;;2.35;1.85;;;16.20;98.10;;;;;;5075482;28;20035;-61
2022/04/21 12:06:27;;;;;;;4.38;2.42;;;16.20;98.20;;;;;;5077207;28;20032;-62
2022/04/21 12:08:31;;;;;;;2.15;1.70;;;16.20;98.40;;;;;;5075575;28;20378;-62
2022/04/21 12:10:57;;;;;;;3.92;2.28;;;16.30;98.60;;;;;;5057270;28;20119;-60
2022/04/21 12:13:24;;;;;;;3.35;2.10;;;16.30;98.40;;;;;;5075267;28;20016;-62
2022/04/21 12:15:50;;;;;;;3.20;2.17;;;16.20;98.40;;;;;;5074968;28;20029;-64
2022/04/21 12:18:15;;;;;;;6.05;1.95;;;16.20;98.80;;;;;;5057384;28;20032;-64
2022/04/21 12:20:54;;;;;;;2.15;1.90;;;16.20;98.80;;;;;;5057085;28;20028;-64
2022/04/21 12:23:24;;;;;;;3.50;1.75;;;16.30;98.60;;;;;;5056912;28;20012;-62
2022/04/21 12:25:50;;;;;;;4.60;2.20;;;16.50;98.70;;;;;;5056774;28;20050;-62
2022/04/21 12:28:16;;;;;;;2.92;1.77;;;16.40;98.20;;;;;;5056900;28;20020;-66
2022/04/21 12:30:42;;;;;;;4.25;1.80;;;16.40;98.20;;;;;;5074546;28;20052;-63
2022/04/21 12:33:08;;;;;;;6.57;2.35;;;16.30;98.50;;;;;;5074524;28;20083;-63
2022/04/21 12:35:45;;;;;;;4.03;2.50;;;16.20;98.70;;;;;;5064255;28;20027;-65
2022/04/21 12:41:01;;;;;;;2.67;1.88;;;16.30;98.30;;;;;;5094701;28;20027;-61
2022/04/21 12:43:30;;;;;;;3.85;1.90;;;16.60;98.60;;;;;;5094647;28;20021;-65
2022/04/21 12:46:00;;;;;;;3.95;1.70;;;16.50;98.30;;;;;;5076469;28;20020;-64
2022/04/21 12:48:27;;;;;;;2.42;1.60;;;16.50;98.80;;;;;;5076817;28;20020;-65
2022/04/21 12:50:54;;;;;;;2.65;1.50;;;16.40;98.50;;;;;;5094580;28;20024;-64
2022/04/21 12:53:29;;;;;;;1.85;1.27;;;16.50;99.10;;;;;;5076824;28;20024;-55
2022/04/21 12:56:09;;;;;;;2.13;1.50;;;16.60;98.30;;;;;;5076436;28;20024;-62
2022/04/21 12:58:35;;;;;;;1.98;1.45;;;16.60;98.10;;;;;;5076365;28;20024;-63
2022/04/21 13:01:00;;;;;;;1.65;1.40;;;16.80;99.10;;;;;;5094350;28;20039;-59
2022/04/21 13:03:27;;;;;;;2.35;1.50;;;16.60;97.90;;;;;;5094493;28;20026;-63
2022/04/21 13:05:55;;;;;;;2.72;1.52;;;16.70;98.10;;;;;;5076565;28;20025;-62
2022/04/21 13:08:26;;;;;;;2.25;1.50;;;16.60;97.80;;;;;;5076083;28;20020;-60
2022/04/21 13:10:54;;;;;;;4.60;1.73;;;16.60;98.10;;;;;;5076365;28;20028;-63
2022/04/21 13:13:21;;;;;;;3.20;1.90;;;16.70;98.50;;;;;;5076217;28;20510;-62
2022/04/21 13:15:47;;;;;;;3.03;1.83;;;16.90;97.50;;;;;;5075966;28;20032;-61
2022/04/21 13:18:13;;;;;;;3.90;1.92;;;16.80;98.00;;;;;;5075977;28;20024;-65
2022/04/21 13:23:24;;;;;;;4.07;1.83;;;16.60;98.20;;;;;;5094234;28;20497;-65
2022/04/21 13:25:50;;;;;;;4.15;1.83;;;16.50;98.50;;;;;;5093830;28;20150;-65
2022/04/21 13:28:18;;;;;;;2.08;1.48;;;16.60;99.00;;;;;;5071914;28;20122;-67
2022/04/21 13:30:43;;;;;;;2.28;1.83;;;16.70;98.30;;;;;;5071366;28;20031;-66
2022/04/21 13:33:24;;;;;;;3.72;2.00;;;16.70;98.60;;;;;;5076019;28;20024;-67
2022/04/21 13:35:51;;;;;;;2.42;1.65;;;16.70;99.00;;;;;;5076092;28;20028;-65
2022/04/21 13:38:17;;;;;;;4.95;2.00;;;16.60;98.80;;;;;;5093784;28;20023;-64
2022/04/21 13:40:46;;;;;;;2.80;1.77;;;16.50;99.10;;;;;;5075789;28;20035;-65
2022/04/21 13:43:12;;;;;;;4.32;1.95;;;16.60;99.90;;;;;;5074874;28;20034;-65
2022/04/21 13:45:38;;;;;;;3.03;1.95;;;16.70;99.10;;;;;;5074833;28;20024;-67
2022/04/21 13:48:05;;;;;;;2.22;1.60;;;16.60;99.60;;;;;;5093281;28;20031;-65
2022/04/21 13:50:31;;;;;;;2.40;1.73;;;16.60;99.20;;;;;;5075755;28;20024;-64
2022/04/21 13:52:56;;;;;;;3.78;1.67;;;16.50;99.10;;;;;;5093524;28;20053;-64